sensor_id;sensor_type;location;lat;lon;timestamp;P1;durP1;ratioP1;P2;durP2;ratioP2
40116;SDS011;25829;50.228;18.936;2022-11-03T00:01:36;28.80;;;16.77;;
40116;SDS011;25829;50.228;18.936;2022-11-03T00:04:47;28.83;;;17.23;;
40116;SDS011;25829;50.228;18.936;2022-11-03T00:07:47;26.57;;;16.73;;
40116;SDS011;25829;50.228;18.936;2022-11-03T00:10:50;31.17;;;18.30;;
40116;SDS011;25829;50.228;18.936;2022-11-03T00:13:51;31.77;;;18.40;;
40116;SDS011;25829;50.228;18.936;2022-11-03T00:16:52;30.60;;;19.07;;
40116;SDS011;25829;50.228;18.936;2022-11-03T00:19:53;28.27;;;19.00;;
40116;SDS011;25829;50.228;18.936;2022-11-03T00:22:54;29.73;;;17.97;;
40116;SDS011;25829;50.228;18.936;2022-11-03T00:26:01;25.30;;;16.57;;
40116;SDS011;25829;50.228;18.936;2022-11-03T00:29:12;22.90;;;16.13;;
40116;SDS011;25829;50.228;18.936;2022-11-03T00:32:13;28.73;;;17.03;;
40116;SDS011;25829;50.228;18.936;2022-11-03T00:35:14;27.03;;;16.43;;
40116;SDS011;25829;50.228;18.936;2022-11-03T00:38:15;24.50;;;16.40;;
40116;SDS011;25829;50.228;18.936;2022-11-03T00:41:15;24.57;;;16.20;;
40116;SDS011;25829;50.228;18.936;2022-11-03T00:44:17;29.00;;;15.37;;
40116;SDS011;25829;50.228;18.936;2022-11-03T00:47:18;25.30;;;15.83;;
40116;SDS011;25829;50.228;18.936;2022-11-03T00:50:18;23.67;;;15.43;;
40116;SDS011;25829;50.228;18.936;2022-11-03T00:53:19;27.63;;;15.67;;
40116;SDS011;25829;50.228;18.936;2022-11-03T00:56:27;22.20;;;15.77;;
40116;SDS011;25829;50.228;18.936;2022-11-03T00:59:29;20.43;;;14.20;;
40116;SDS011;25829;50.228;18.936;2022-11-03T01:02:30;23.27;;;14.00;;
40116;SDS011;25829;50.228;18.936;2022-11-03T01:05:30;20.73;;;14.00;;
40116;SDS011;25829;50.228;18.936;2022-11-03T01:08:49;26.10;;;15.33;;
40116;SDS011;25829;50.228;18.936;2022-11-03T01:12:00;25.10;;;14.57;;
40116;SDS011;25829;50.228;18.936;2022-11-03T01:15:03;22.63;;;14.63;;
40116;SDS011;25829;50.228;18.936;2022-11-03T01:18:04;25.20;;;15.37;;
40116;SDS011;25829;50.228;18.936;2022-11-03T01:21:05;23.90;;;15.27;;
40116;SDS011;25829;50.228;18.936;2022-11-03T01:24:06;23.47;;;15.03;;
40116;SDS011;25829;50.228;18.936;2022-11-03T01:27:10;24.00;;;15.83;;
40116;SDS011;25829;50.228;18.936;2022-11-03T01:30:13;27.97;;;15.93;;
40116;SDS011;25829;50.228;18.936;2022-11-03T01:33:14;28.30;;;16.43;;
40116;SDS011;25829;50.228;18.936;2022-11-03T01:36:15;28.40;;;17.43;;
40116;SDS011;25829;50.228;18.936;2022-11-03T01:39:17;35.30;;;19.00;;
40116;SDS011;25829;50.228;18.936;2022-11-03T01:42:18;28.67;;;18.37;;
40116;SDS011;25829;50.228;18.936;2022-11-03T01:45:19;28.87;;;15.53;;
40116;SDS011;25829;50.228;18.936;2022-11-03T01:48:20;30.70;;;18.27;;
40116;SDS011;25829;50.228;18.936;2022-11-03T01:51:23;29.33;;;16.97;;
40116;SDS011;25829;50.228;18.936;2022-11-03T01:54:26;28.40;;;15.80;;
40116;SDS011;25829;50.228;18.936;2022-11-03T01:57:36;28.00;;;17.70;;
40116;SDS011;25829;50.228;18.936;2022-11-03T02:01:04;29.67;;;15.97;;
40116;SDS011;25829;50.228;18.936;2022-11-03T02:04:07;26.57;;;15.10;;
40116;SDS011;25829;50.228;18.936;2022-11-03T02:07:14;28.20;;;14.87;;
40116;SDS011;25829;50.228;18.936;2022-11-03T02:10:37;27.03;;;15.83;;
40116;SDS011;25829;50.228;18.936;2022-11-03T02:13:38;29.87;;;16.27;;
40116;SDS011;25829;50.228;18.936;2022-11-03T02:16:39;26.53;;;16.80;;
40116;SDS011;25829;50.228;18.936;2022-11-03T02:19:44;30.93;;;17.30;;
40116;SDS011;25829;50.228;18.936;2022-11-03T02:26:11;29.27;;;17.73;;
40116;SDS011;25829;50.228;18.936;2022-11-03T02:29:14;24.70;;;16.13;;
40116;SDS011;25829;50.228;18.936;2022-11-03T02:32:19;27.57;;;16.53;;
40116;SDS011;25829;50.228;18.936;2022-11-03T02:35:30;27.03;;;16.23;;
40116;SDS011;25829;50.228;18.936;2022-11-03T02:38:41;28.80;;;16.93;;
40116;SDS011;25829;50.228;18.936;2022-11-03T02:41:46;27.43;;;14.83;;
40116;SDS011;25829;50.228;18.936;2022-11-03T02:44:49;30.47;;;16.50;;
40116;SDS011;25829;50.228;18.936;2022-11-03T02:47:53;20.73;;;13.97;;
40116;SDS011;25829;50.228;18.936;2022-11-03T02:50:57;28.17;;;15.73;;
40116;SDS011;25829;50.228;18.936;2022-11-03T02:54:32;31.03;;;17.50;;
40116;SDS011;25829;50.228;18.936;2022-11-03T02:57:28;28.27;;;16.53;;
40116;SDS011;25829;50.228;18.936;2022-11-03T03:00:34;32.00;;;16.93;;
40116;SDS011;25829;50.228;18.936;2022-11-03T03:03:51;26.17;;;15.87;;
40116;SDS011;25829;50.228;18.936;2022-11-03T03:06:58;26.03;;;14.70;;
40116;SDS011;25829;50.228;18.936;2022-11-03T03:10:03;29.60;;;16.50;;
40116;SDS011;25829;50.228;18.936;2022-11-03T03:13:10;28.03;;;16.80;;
40116;SDS011;25829;50.228;18.936;2022-11-03T03:16:16;29.70;;;18.80;;
40116;SDS011;25829;50.228;18.936;2022-11-03T03:19:42;30.80;;;17.40;;
40116;SDS011;25829;50.228;18.936;2022-11-03T03:26:09;26.50;;;15.97;;
40116;SDS011;25829;50.228;18.936;2022-11-03T03:29:49;31.50;;;17.37;;
40116;SDS011;25829;50.228;18.936;2022-11-03T03:32:48;26.17;;;15.67;;
40116;SDS011;25829;50.228;18.936;2022-11-03T03:35:50;27.03;;;15.93;;
40116;SDS011;25829;50.228;18.936;2022-11-03T03:38:54;24.63;;;15.23;;
40116;SDS011;25829;50.228;18.936;2022-11-03T03:41:58;28.57;;;16.43;;
40116;SDS011;25829;50.228;18.936;2022-11-03T03:45:02;31.27;;;16.93;;
40116;SDS011;25829;50.228;18.936;2022-11-03T03:48:03;28.70;;;16.67;;
40116;SDS011;25829;50.228;18.936;2022-11-03T03:51:05;28.93;;;16.77;;
40116;SDS011;25829;50.228;18.936;2022-11-03T03:54:06;30.00;;;16.60;;
40116;SDS011;25829;50.228;18.936;2022-11-03T03:57:09;29.20;;;18.20;;
40116;SDS011;25829;50.228;18.936;2022-11-03T04:00:19;29.20;;;17.43;;
40116;SDS011;25829;50.228;18.936;2022-11-03T04:03:21;30.63;;;17.10;;
40116;SDS011;25829;50.228;18.936;2022-11-03T04:06:23;30.17;;;17.23;;
40116;SDS011;25829;50.228;18.936;2022-11-03T04:09:23;33.10;;;16.60;;
40116;SDS011;25829;50.228;18.936;2022-11-03T04:12:24;30.70;;;17.63;;
40116;SDS011;25829;50.228;18.936;2022-11-03T04:15:43;30.73;;;19.03;;
40116;SDS011;25829;50.228;18.936;2022-11-03T04:19:02;35.20;;;20.43;;
40116;SDS011;25829;50.228;18.936;2022-11-03T04:22:22;39.33;;;21.00;;
40116;SDS011;25829;50.228;18.936;2022-11-03T04:25:24;36.13;;;21.63;;
40116;SDS011;25829;50.228;18.936;2022-11-03T04:28:25;34.70;;;20.43;;
40116;SDS011;25829;50.228;18.936;2022-11-03T04:31:26;34.63;;;19.77;;
40116;SDS011;25829;50.228;18.936;2022-11-03T04:34:35;36.60;;;20.73;;
40116;SDS011;25829;50.228;18.936;2022-11-03T04:37:35;34.00;;;19.67;;
40116;SDS011;25829;50.228;18.936;2022-11-03T04:40:38;36.13;;;20.63;;
40116;SDS011;25829;50.228;18.936;2022-11-03T04:43:43;33.43;;;18.80;;
40116;SDS011;25829;50.228;18.936;2022-11-03T04:46:45;33.97;;;19.33;;
40116;SDS011;25829;50.228;18.936;2022-11-03T04:49:46;32.97;;;18.63;;
40116;SDS011;25829;50.228;18.936;2022-11-03T04:52:48;30.10;;;18.67;;
40116;SDS011;25829;50.228;18.936;2022-11-03T04:55:57;36.87;;;21.30;;
40116;SDS011;25829;50.228;18.936;2022-11-03T04:58:59;27.97;;;17.90;;
40116;SDS011;25829;50.228;18.936;2022-11-03T05:01:59;26.17;;;17.10;;
40116;SDS011;25829;50.228;18.936;2022-11-03T05:05:00;33.87;;;18.83;;
40116;SDS011;25829;50.228;18.936;2022-11-03T05:08:14;34.03;;;21.30;;
40116;SDS011;25829;50.228;18.936;2022-11-03T05:11:29;34.40;;;19.83;;
40116;SDS011;25829;50.228;18.936;2022-11-03T05:14:32;39.50;;;22.77;;
40116;SDS011;25829;50.228;18.936;2022-11-03T05:17:33;34.73;;;21.03;;
40116;SDS011;25829;50.228;18.936;2022-11-03T05:20:35;36.83;;;23.53;;
40116;SDS011;25829;50.228;18.936;2022-11-03T05:23:41;37.67;;;23.07;;
40116;SDS011;25829;50.228;18.936;2022-11-03T05:26:47;39.67;;;25.87;;
40116;SDS011;25829;50.228;18.936;2022-11-03T05:29:49;42.70;;;27.63;;
40116;SDS011;25829;50.228;18.936;2022-11-03T05:32:52;43.90;;;28.57;;
40116;SDS011;25829;50.228;18.936;2022-11-03T05:35:54;45.17;;;26.30;;
40116;SDS011;25829;50.228;18.936;2022-11-03T05:39:39;41.87;;;24.53;;
40116;SDS011;25829;50.228;18.936;2022-11-03T05:42:34;38.07;;;22.03;;
40116;SDS011;25829;50.228;18.936;2022-11-03T05:45:37;38.27;;;23.27;;
40116;SDS011;25829;50.228;18.936;2022-11-03T05:48:38;35.93;;;21.47;;
40116;SDS011;25829;50.228;18.936;2022-11-03T05:51:43;33.67;;;21.77;;
40116;SDS011;25829;50.228;18.936;2022-11-03T05:54:45;36.17;;;21.80;;
40116;SDS011;25829;50.228;18.936;2022-11-03T05:57:46;35.50;;;22.07;;
40116;SDS011;25829;50.228;18.936;2022-11-03T06:00:47;37.57;;;21.80;;
40116;SDS011;25829;50.228;18.936;2022-11-03T06:03:47;35.53;;;22.07;;
40116;SDS011;25829;50.228;18.936;2022-11-03T06:06:51;37.73;;;25.33;;
40116;SDS011;25829;50.228;18.936;2022-11-03T06:09:55;41.77;;;23.10;;
40116;SDS011;25829;50.228;18.936;2022-11-03T06:13:39;33.60;;;20.87;;
40116;SDS011;25829;50.228;18.936;2022-11-03T06:20:06;37.77;;;22.27;;
40116;SDS011;25829;50.228;18.936;2022-11-03T06:23:15;29.23;;;17.90;;
40116;SDS011;25829;50.228;18.936;2022-11-03T06:26:20;32.43;;;20.07;;
40116;SDS011;25829;50.228;18.936;2022-11-03T06:29:24;39.90;;;23.43;;
40116;SDS011;25829;50.228;18.936;2022-11-03T06:32:25;39.80;;;22.57;;
40116;SDS011;25829;50.228;18.936;2022-11-03T06:35:27;32.27;;;22.67;;
40116;SDS011;25829;50.228;18.936;2022-11-03T06:38:29;46.03;;;26.23;;
40116;SDS011;25829;50.228;18.936;2022-11-03T06:41:34;47.07;;;26.47;;
40116;SDS011;25829;50.228;18.936;2022-11-03T06:44:35;42.17;;;24.93;;
40116;SDS011;25829;50.228;18.936;2022-11-03T06:47:40;43.23;;;25.20;;
40116;SDS011;25829;50.228;18.936;2022-11-03T06:50:41;43.37;;;25.80;;
40116;SDS011;25829;50.228;18.936;2022-11-03T06:53:42;39.43;;;24.63;;
40116;SDS011;25829;50.228;18.936;2022-11-03T06:56:42;45.57;;;26.13;;
40116;SDS011;25829;50.228;18.936;2022-11-03T06:59:43;44.00;;;26.80;;
40116;SDS011;25829;50.228;18.936;2022-11-03T07:02:59;44.80;;;26.67;;
40116;SDS011;25829;50.228;18.936;2022-11-03T07:06:16;43.87;;;26.90;;
40116;SDS011;25829;50.228;18.936;2022-11-03T07:09:21;45.77;;;27.80;;
40116;SDS011;25829;50.228;18.936;2022-11-03T07:12:27;45.73;;;25.97;;
40116;SDS011;25829;50.228;18.936;2022-11-03T07:15:29;48.20;;;28.37;;
40116;SDS011;25829;50.228;18.936;2022-11-03T07:18:34;43.77;;;26.93;;
40116;SDS011;25829;50.228;18.936;2022-11-03T07:21:58;41.40;;;25.67;;
40116;SDS011;25829;50.228;18.936;2022-11-03T07:25:00;44.87;;;27.70;;
40116;SDS011;25829;50.228;18.936;2022-11-03T07:28:03;44.57;;;26.83;;
40116;SDS011;25829;50.228;18.936;2022-11-03T07:31:13;46.47;;;27.60;;
40116;SDS011;25829;50.228;18.936;2022-11-03T07:34:18;47.17;;;26.57;;
40116;SDS011;25829;50.228;18.936;2022-11-03T07:37:23;40.97;;;25.10;;
40116;SDS011;25829;50.228;18.936;2022-11-03T07:40:26;44.27;;;25.90;;
40116;SDS011;25829;50.228;18.936;2022-11-03T07:43:31;40.73;;;24.17;;
40116;SDS011;25829;50.228;18.936;2022-11-03T07:46:34;35.63;;;20.80;;
40116;SDS011;25829;50.228;18.936;2022-11-03T07:49:36;28.67;;;17.27;;
40116;SDS011;25829;50.228;18.936;2022-11-03T07:52:36;30.80;;;17.57;;
40116;SDS011;25829;50.228;18.936;2022-11-03T07:55:37;24.00;;;14.87;;
40116;SDS011;25829;50.228;18.936;2022-11-03T07:58:38;18.50;;;13.67;;
40116;SDS011;25829;50.228;18.936;2022-11-03T08:01:42;23.17;;;13.73;;
40116;SDS011;25829;50.228;18.936;2022-11-03T08:04:46;22.47;;;13.97;;
40116;SDS011;25829;50.228;18.936;2022-11-03T08:07:47;24.43;;;14.17;;
40116;SDS011;25829;50.228;18.936;2022-11-03T08:10:48;26.13;;;15.13;;
40116;SDS011;25829;50.228;18.936;2022-11-03T08:13:49;30.50;;;15.80;;
40116;SDS011;25829;50.228;18.936;2022-11-03T08:16:51;28.73;;;15.50;;
40116;SDS011;25829;50.228;18.936;2022-11-03T08:19:51;27.47;;;15.33;;
40116;SDS011;25829;50.228;18.936;2022-11-03T08:22:52;27.47;;;14.87;;
40116;SDS011;25829;50.228;18.936;2022-11-03T08:25:53;25.50;;;15.53;;
40116;SDS011;25829;50.228;18.936;2022-11-03T08:28:53;26.37;;;15.57;;
40116;SDS011;25829;50.228;18.936;2022-11-03T08:31:54;22.80;;;15.17;;
40116;SDS011;25829;50.228;18.936;2022-11-03T08:34:55;22.20;;;12.83;;
40116;SDS011;25829;50.228;18.936;2022-11-03T08:37:56;23.13;;;13.40;;
40116;SDS011;25829;50.228;18.936;2022-11-03T08:40:57;23.70;;;13.50;;
40116;SDS011;25829;50.228;18.936;2022-11-03T08:43:57;22.60;;;12.77;;
40116;SDS011;25829;50.228;18.936;2022-11-03T08:46:58;21.93;;;12.73;;
40116;SDS011;25829;50.228;18.936;2022-11-03T08:49:59;20.77;;;10.60;;
40116;SDS011;25829;50.228;18.936;2022-11-03T08:53:00;18.40;;;10.73;;
40116;SDS011;25829;50.228;18.936;2022-11-03T08:56:00;16.03;;;10.33;;
40116;SDS011;25829;50.228;18.936;2022-11-03T08:59:01;19.37;;;9.90;;
40116;SDS011;25829;50.228;18.936;2022-11-03T09:02:02;15.20;;;8.77;;
40116;SDS011;25829;50.228;18.936;2022-11-03T09:05:03;14.57;;;7.80;;
40116;SDS011;25829;50.228;18.936;2022-11-03T09:08:05;15.13;;;8.40;;
40116;SDS011;25829;50.228;18.936;2022-11-03T09:11:06;13.87;;;8.37;;
40116;SDS011;25829;50.228;18.936;2022-11-03T09:14:07;15.05;;;8.18;;
40116;SDS011;25829;50.228;18.936;2022-11-03T09:17:07;13.40;;;7.80;;
40116;SDS011;25829;50.228;18.936;2022-11-03T09:20:08;11.52;;;6.85;;
40116;SDS011;25829;50.228;18.936;2022-11-03T09:23:10;14.30;;;7.32;;
40116;SDS011;25829;50.228;18.936;2022-11-03T09:26:11;13.30;;;6.22;;
40116;SDS011;25829;50.228;18.936;2022-11-03T09:29:11;12.60;;;6.63;;
40116;SDS011;25829;50.228;18.936;2022-11-03T09:32:12;12.80;;;6.38;;
40116;SDS011;25829;50.228;18.936;2022-11-03T09:35:13;11.65;;;6.07;;
40116;SDS011;25829;50.228;18.936;2022-11-03T09:38:14;10.55;;;6.07;;
40116;SDS011;25829;50.228;18.936;2022-11-03T09:41:14;11.55;;;5.22;;
40116;SDS011;25829;50.228;18.936;2022-11-03T09:44:19;13.38;;;5.93;;
40116;SDS011;25829;50.228;18.936;2022-11-03T09:47:25;11.20;;;5.60;;
40116;SDS011;25829;50.228;18.936;2022-11-03T09:50:28;11.73;;;5.03;;
40116;SDS011;25829;50.228;18.936;2022-11-03T09:53:31;9.52;;;5.18;;
40116;SDS011;25829;50.228;18.936;2022-11-03T09:56:33;9.75;;;5.10;;
40116;SDS011;25829;50.228;18.936;2022-11-03T09:59:36;8.27;;;4.78;;
40116;SDS011;25829;50.228;18.936;2022-11-03T10:02:37;9.68;;;4.68;;
40116;SDS011;25829;50.228;18.936;2022-11-03T10:05:42;10.52;;;4.80;;
40116;SDS011;25829;50.228;18.936;2022-11-03T10:08:45;7.32;;;4.10;;
40116;SDS011;25829;50.228;18.936;2022-11-03T10:11:50;10.50;;;4.03;;
40116;SDS011;25829;50.228;18.936;2022-11-03T10:14:53;6.45;;;3.40;;
40116;SDS011;25829;50.228;18.936;2022-11-03T10:17:54;5.38;;;3.33;;
40116;SDS011;25829;50.228;18.936;2022-11-03T10:20:55;5.88;;;3.95;;
40116;SDS011;25829;50.228;18.936;2022-11-03T10:24:02;7.65;;;4.40;;
40116;SDS011;25829;50.228;18.936;2022-11-03T10:27:05;6.72;;;4.03;;
40116;SDS011;25829;50.228;18.936;2022-11-03T10:30:20;5.80;;;3.67;;
40116;SDS011;25829;50.228;18.936;2022-11-03T10:36:44;8.48;;;3.20;;
40116;SDS011;25829;50.228;18.936;2022-11-03T10:39:45;5.53;;;3.17;;
40116;SDS011;25829;50.228;18.936;2022-11-03T10:42:56;4.47;;;2.65;;
40116;SDS011;25829;50.228;18.936;2022-11-03T10:49:19;5.22;;;2.90;;
40116;SDS011;25829;50.228;18.936;2022-11-03T10:52:24;5.00;;;2.92;;
40116;SDS011;25829;50.228;18.936;2022-11-03T10:55:26;8.77;;;4.63;;
40116;SDS011;25829;50.228;18.936;2022-11-03T10:58:28;5.55;;;2.83;;
40116;SDS011;25829;50.228;18.936;2022-11-03T11:01:30;6.30;;;3.53;;
40116;SDS011;25829;50.228;18.936;2022-11-03T11:04:31;6.97;;;3.55;;
40116;SDS011;25829;50.228;18.936;2022-11-03T11:07:35;7.07;;;3.30;;
40116;SDS011;25829;50.228;18.936;2022-11-03T11:10:42;9.25;;;4.05;;
40116;SDS011;25829;50.228;18.936;2022-11-03T11:13:44;6.90;;;2.88;;
40116;SDS011;25829;50.228;18.936;2022-11-03T11:16:49;5.50;;;2.85;;
40116;SDS011;25829;50.228;18.936;2022-11-03T11:33:12;4.43;;;2.83;;
40116;SDS011;25829;50.228;18.936;2022-11-03T11:36:19;5.90;;;3.42;;
40116;SDS011;25829;50.228;18.936;2022-11-03T11:42:28;6.05;;;3.30;;
40116;SDS011;25829;50.228;18.936;2022-11-03T11:52:07;4.32;;;2.83;;
40116;SDS011;25829;50.228;18.936;2022-11-03T12:01:47;4.47;;;2.55;;
40116;SDS011;25829;50.228;18.936;2022-11-03T12:04:52;6.32;;;2.67;;
40116;SDS011;25829;50.228;18.936;2022-11-03T12:08:00;4.60;;;2.65;;
40116;SDS011;25829;50.228;18.936;2022-11-03T12:11:03;4.97;;;2.80;;
40116;SDS011;25829;50.228;18.936;2022-11-03T12:14:18;5.82;;;2.90;;
40116;SDS011;25829;50.228;18.936;2022-11-03T12:17:30;4.90;;;2.50;;
40116;SDS011;25829;50.228;18.936;2022-11-03T12:20:42;3.47;;;2.15;;
40116;SDS011;25829;50.228;18.936;2022-11-03T12:23:46;4.47;;;2.08;;
40116;SDS011;25829;50.228;18.936;2022-11-03T12:26:47;5.93;;;2.25;;
40116;SDS011;25829;50.228;18.936;2022-11-03T12:29:48;5.57;;;2.35;;
40116;SDS011;25829;50.228;18.936;2022-11-03T12:32:52;4.15;;;2.13;;
40116;SDS011;25829;50.228;18.936;2022-11-03T12:35:54;7.20;;;2.17;;
40116;SDS011;25829;50.228;18.936;2022-11-03T12:38:55;3.38;;;2.17;;
40116;SDS011;25829;50.228;18.936;2022-11-03T12:41:56;3.65;;;2.10;;
40116;SDS011;25829;50.228;18.936;2022-11-03T12:44:57;5.47;;;2.38;;
40116;SDS011;25829;50.228;18.936;2022-11-03T12:47:58;5.85;;;2.40;;
40116;SDS011;25829;50.228;18.936;2022-11-03T12:50:59;4.55;;;2.22;;
40116;SDS011;25829;50.228;18.936;2022-11-03T12:53:59;2.42;;;1.85;;
40116;SDS011;25829;50.228;18.936;2022-11-03T12:57:00;4.70;;;2.22;;
40116;SDS011;25829;50.228;18.936;2022-11-03T13:00:01;5.05;;;2.42;;
40116;SDS011;25829;50.228;18.936;2022-11-03T13:03:02;3.72;;;2.60;;
40116;SDS011;25829;50.228;18.936;2022-11-03T13:06:03;5.68;;;2.08;;
40116;SDS011;25829;50.228;18.936;2022-11-03T13:09:09;4.97;;;2.03;;
40116;SDS011;25829;50.228;18.936;2022-11-03T13:12:10;3.63;;;2.30;;
40116;SDS011;25829;50.228;18.936;2022-11-03T13:15:30;3.58;;;2.28;;
40116;SDS011;25829;50.228;18.936;2022-11-03T13:18:31;5.07;;;2.67;;
40116;SDS011;25829;50.228;18.936;2022-11-03T13:21:31;3.92;;;2.47;;
40116;SDS011;25829;50.228;18.936;2022-11-03T13:24:32;4.93;;;2.78;;
40116;SDS011;25829;50.228;18.936;2022-11-03T13:27:33;4.65;;;2.50;;
40116;SDS011;25829;50.228;18.936;2022-11-03T13:30:34;6.22;;;2.80;;
40116;SDS011;25829;50.228;18.936;2022-11-03T13:33:35;9.05;;;2.60;;
40116;SDS011;25829;50.228;18.936;2022-11-03T13:36:36;2.85;;;2.20;;
40116;SDS011;25829;50.228;18.936;2022-11-03T13:39:37;3.75;;;3.00;;
40116;SDS011;25829;50.228;18.936;2022-11-03T13:42:38;4.13;;;2.33;;
40116;SDS011;25829;50.228;18.936;2022-11-03T13:45:39;4.57;;;2.72;;
40116;SDS011;25829;50.228;18.936;2022-11-03T13:48:39;4.60;;;2.63;;
40116;SDS011;25829;50.228;18.936;2022-11-03T13:51:40;4.03;;;2.92;;
40116;SDS011;25829;50.228;18.936;2022-11-03T13:54:41;7.72;;;3.53;;
40116;SDS011;25829;50.228;18.936;2022-11-03T13:57:41;5.90;;;3.53;;
40116;SDS011;25829;50.228;18.936;2022-11-03T14:00:42;8.82;;;3.40;;
40116;SDS011;25829;50.228;18.936;2022-11-03T14:03:43;7.30;;;3.28;;
40116;SDS011;25829;50.228;18.936;2022-11-03T14:06:43;5.78;;;3.55;;
40116;SDS011;25829;50.228;18.936;2022-11-03T14:09:44;11.18;;;3.83;;
40116;SDS011;25829;50.228;18.936;2022-11-03T14:12:45;4.78;;;3.22;;
40116;SDS011;25829;50.228;18.936;2022-11-03T14:15:46;7.68;;;3.95;;
40116;SDS011;25829;50.228;18.936;2022-11-03T14:18:46;6.03;;;3.88;;
40116;SDS011;25829;50.228;18.936;2022-11-03T14:21:47;7.63;;;4.18;;
40116;SDS011;25829;50.228;18.936;2022-11-03T14:24:48;6.35;;;3.83;;
40116;SDS011;25829;50.228;18.936;2022-11-03T14:27:50;7.85;;;3.28;;
40116;SDS011;25829;50.228;18.936;2022-11-03T14:30:51;8.35;;;3.53;;
40116;SDS011;25829;50.228;18.936;2022-11-03T14:33:52;5.63;;;3.42;;
40116;SDS011;25829;50.228;18.936;2022-11-03T14:36:52;13.30;;;4.70;;
40116;SDS011;25829;50.228;18.936;2022-11-03T14:39:56;6.22;;;4.18;;
40116;SDS011;25829;50.228;18.936;2022-11-03T14:46:28;6.03;;;4.40;;
40116;SDS011;25829;50.228;18.936;2022-11-03T14:49:30;8.57;;;4.55;;
40116;SDS011;25829;50.228;18.936;2022-11-03T14:52:31;11.15;;;4.70;;
40116;SDS011;25829;50.228;18.936;2022-11-03T14:55:32;9.82;;;4.65;;
40116;SDS011;25829;50.228;18.936;2022-11-03T14:58:33;9.32;;;4.20;;
40116;SDS011;25829;50.228;18.936;2022-11-03T15:01:33;6.85;;;3.97;;
40116;SDS011;25829;50.228;18.936;2022-11-03T15:04:35;6.82;;;3.55;;
40116;SDS011;25829;50.228;18.936;2022-11-03T15:07:36;7.82;;;4.10;;
40116;SDS011;25829;50.228;18.936;2022-11-03T15:10:37;5.43;;;4.10;;
40116;SDS011;25829;50.228;18.936;2022-11-03T15:13:37;10.75;;;4.25;;
40116;SDS011;25829;50.228;18.936;2022-11-03T15:16:38;9.57;;;4.28;;
40116;SDS011;25829;50.228;18.936;2022-11-03T15:19:39;9.48;;;4.70;;
40116;SDS011;25829;50.228;18.936;2022-11-03T15:22:40;9.27;;;4.68;;
40116;SDS011;25829;50.228;18.936;2022-11-03T15:25:41;8.05;;;5.18;;
40116;SDS011;25829;50.228;18.936;2022-11-03T15:28:41;11.60;;;4.68;;
40116;SDS011;25829;50.228;18.936;2022-11-03T15:31:42;10.35;;;4.40;;
40116;SDS011;25829;50.228;18.936;2022-11-03T15:34:43;11.52;;;5.60;;
40116;SDS011;25829;50.228;18.936;2022-11-03T15:37:44;9.23;;;4.65;;
40116;SDS011;25829;50.228;18.936;2022-11-03T15:40:45;11.00;;;5.70;;
40116;SDS011;25829;50.228;18.936;2022-11-03T15:43:46;12.98;;;5.97;;
40116;SDS011;25829;50.228;18.936;2022-11-03T15:46:49;9.00;;;4.75;;
40116;SDS011;25829;50.228;18.936;2022-11-03T15:49:50;7.43;;;4.88;;
40116;SDS011;25829;50.228;18.936;2022-11-03T15:52:51;9.75;;;5.18;;
40116;SDS011;25829;50.228;18.936;2022-11-03T15:55:53;9.75;;;5.32;;
40116;SDS011;25829;50.228;18.936;2022-11-03T15:58:53;10.85;;;5.22;;
40116;SDS011;25829;50.228;18.936;2022-11-03T16:01:54;12.10;;;5.03;;
40116;SDS011;25829;50.228;18.936;2022-11-03T16:04:55;7.53;;;4.60;;
40116;SDS011;25829;50.228;18.936;2022-11-03T16:07:56;8.85;;;4.93;;
40116;SDS011;25829;50.228;18.936;2022-11-03T16:10:57;9.65;;;4.82;;
40116;SDS011;25829;50.228;18.936;2022-11-03T16:13:57;9.18;;;5.28;;
40116;SDS011;25829;50.228;18.936;2022-11-03T16:16:59;9.15;;;4.60;;
40116;SDS011;25829;50.228;18.936;2022-11-03T16:19:59;12.95;;;4.82;;
40116;SDS011;25829;50.228;18.936;2022-11-03T16:23:00;9.98;;;4.93;;
40116;SDS011;25829;50.228;18.936;2022-11-03T16:26:01;9.50;;;5.47;;
40116;SDS011;25829;50.228;18.936;2022-11-03T16:29:04;17.38;;;5.70;;
40116;SDS011;25829;50.228;18.936;2022-11-03T16:32:05;9.18;;;5.43;;
40116;SDS011;25829;50.228;18.936;2022-11-03T16:35:15;11.70;;;7.03;;
40116;SDS011;25829;50.228;18.936;2022-11-03T16:38:15;12.52;;;6.43;;
40116;SDS011;25829;50.228;18.936;2022-11-03T16:41:16;14.60;;;7.10;;
40116;SDS011;25829;50.228;18.936;2022-11-03T16:44:17;12.07;;;6.65;;
40116;SDS011;25829;50.228;18.936;2022-11-03T16:47:17;13.45;;;7.13;;
40116;SDS011;25829;50.228;18.936;2022-11-03T16:50:18;16.65;;;7.07;;
40116;SDS011;25829;50.228;18.936;2022-11-03T16:53:25;11.23;;;7.10;;
40116;SDS011;25829;50.228;18.936;2022-11-03T16:56:26;15.48;;;7.07;;
40116;SDS011;25829;50.228;18.936;2022-11-03T16:59:26;10.68;;;7.07;;
40116;SDS011;25829;50.228;18.936;2022-11-03T17:02:27;17.63;;;7.18;;
40116;SDS011;25829;50.228;18.936;2022-11-03T17:05:28;15.07;;;7.10;;
40116;SDS011;25829;50.228;18.936;2022-11-03T17:08:29;13.73;;;6.65;;
40116;SDS011;25829;50.228;18.936;2022-11-03T17:11:30;12.13;;;7.40;;
40116;SDS011;25829;50.228;18.936;2022-11-03T17:14:36;11.57;;;6.45;;
40116;SDS011;25829;50.228;18.936;2022-11-03T17:17:37;11.65;;;7.05;;
40116;SDS011;25829;50.228;18.936;2022-11-03T17:20:38;12.80;;;6.75;;
40116;SDS011;25829;50.228;18.936;2022-11-03T17:23:39;12.88;;;7.05;;
40116;SDS011;25829;50.228;18.936;2022-11-03T17:29:56;8.25;;;5.85;;
40116;SDS011;25829;50.228;18.936;2022-11-03T17:33:08;10.13;;;5.85;;
40116;SDS011;25829;50.228;18.936;2022-11-03T17:36:14;11.65;;;6.13;;
40116;SDS011;25829;50.228;18.936;2022-11-03T17:39:15;10.55;;;5.43;;
40116;SDS011;25829;50.228;18.936;2022-11-03T17:42:21;10.52;;;5.43;;
40116;SDS011;25829;50.228;18.936;2022-11-03T17:45:26;6.85;;;5.03;;
40116;SDS011;25829;50.228;18.936;2022-11-03T17:48:28;10.93;;;5.22;;
40116;SDS011;25829;50.228;18.936;2022-11-03T17:51:29;9.15;;;5.10;;
40116;SDS011;25829;50.228;18.936;2022-11-03T17:54:30;9.07;;;5.55;;
40116;SDS011;25829;50.228;18.936;2022-11-03T17:57:31;10.73;;;5.47;;
40116;SDS011;25829;50.228;18.936;2022-11-03T18:00:32;9.30;;;5.30;;
40116;SDS011;25829;50.228;18.936;2022-11-03T18:03:35;11.15;;;5.38;;
40116;SDS011;25829;50.228;18.936;2022-11-03T18:06:36;9.55;;;5.40;;
40116;SDS011;25829;50.228;18.936;2022-11-03T18:09:36;12.85;;;5.28;;
40116;SDS011;25829;50.228;18.936;2022-11-03T18:12:41;10.43;;;5.65;;
40116;SDS011;25829;50.228;18.936;2022-11-03T18:19:13;9.88;;;6.13;;
40116;SDS011;25829;50.228;18.936;2022-11-03T18:22:16;11.13;;;5.75;;
40116;SDS011;25829;50.228;18.936;2022-11-03T18:25:18;11.05;;;6.22;;
40116;SDS011;25829;50.228;18.936;2022-11-03T18:28:20;9.02;;;5.55;;
40116;SDS011;25829;50.228;18.936;2022-11-03T18:31:22;10.43;;;5.88;;
40116;SDS011;25829;50.228;18.936;2022-11-03T18:34:30;14.60;;;6.10;;
40116;SDS011;25829;50.228;18.936;2022-11-03T18:37:37;13.00;;;5.63;;
40116;SDS011;25829;50.228;18.936;2022-11-03T18:40:38;11.82;;;6.05;;
40116;SDS011;25829;50.228;18.936;2022-11-03T18:43:40;10.55;;;6.00;;
40116;SDS011;25829;50.228;18.936;2022-11-03T18:46:41;11.43;;;6.47;;